createdAt,value
2019-05-07T00:01:12.262Z,23.20
2019-05-07T00:03:46.209Z,39.33
2019-05-07T00:06:18.879Z,51.70
2019-05-07T00:08:52.275Z,45.60
2019-05-07T00:11:25.069Z,31.43
2019-05-07T00:13:58.000Z,24.00
2019-05-07T00:16:32.416Z,28.50
2019-05-07T00:19:05.035Z,16.83
2019-05-07T00:21:37.680Z,16.93
2019-05-07T00:24:13.207Z,18.97
2019-05-07T00:26:46.810Z,25.17
2019-05-07T00:29:22.394Z,25.47
2019-05-07T00:31:54.789Z,20.70
2019-05-07T00:34:29.020Z,21.30
2019-05-07T00:37:02.151Z,20.50
2019-05-07T00:39:36.425Z,19.43
2019-05-07T00:42:13.301Z,27.37
2019-05-07T00:45:14.053Z,21.73
2019-05-07T00:47:34.225Z,26.47
2019-05-07T00:50:10.070Z,22.17
2019-05-07T00:52:43.076Z,19.87
2019-05-07T00:55:16.905Z,16.20
2019-05-07T00:57:49.855Z,15.70
2019-05-07T01:00:22.894Z,12.80
2019-05-07T01:02:55.353Z,16.97
2019-05-07T01:05:28.115Z,18.80
2019-05-07T01:08:02.536Z,17.20
2019-05-07T01:10:35.284Z,16.80
2019-05-07T01:13:07.760Z,14.13
2019-05-07T01:15:42.788Z,15.97
2019-05-07T01:18:14.440Z,18.63
2019-05-07T01:20:47.025Z,15.60
2019-05-07T01:23:19.823Z,20.37
2019-05-07T01:25:52.835Z,14.90
2019-05-07T01:28:25.635Z,21.20
2019-05-07T01:30:58.255Z,19.77
2019-05-07T01:33:38.621Z,14.87
2019-05-07T01:36:16.122Z,15.33
2019-05-07T01:38:49.069Z,15.60
2019-05-07T01:41:23.081Z,13.00
2019-05-07T01:43:56.508Z,10.97
2019-05-07T01:46:29.280Z,12.53
2019-05-07T01:49:03.070Z,11.20
2019-05-07T01:51:35.770Z,12.20
2019-05-07T01:54:08.345Z,18.30
2019-05-07T01:56:42.776Z,11.83
2019-05-07T01:59:15.865Z,12.20
2019-05-07T02:01:52.247Z,20.97
2019-05-07T02:04:26.031Z,12.03
2019-05-07T02:07:16.730Z,18.93
2019-05-07T02:09:49.036Z,12.70
2019-05-07T02:12:29.260Z,15.60
2019-05-07T02:15:02.648Z,16.70
2019-05-07T02:17:35.641Z,17.20
2019-05-07T02:20:09.216Z,17.50
2019-05-07T02:22:42.776Z,13.57
2019-05-07T02:25:15.959Z,14.13
2019-05-07T02:27:48.621Z,18.17
2019-05-07T02:30:23.906Z,22.47
2019-05-07T02:32:55.472Z,14.83
2019-05-07T02:35:28.081Z,19.03
2019-05-07T02:38:05.455Z,19.03
2019-05-07T02:40:43.052Z,25.00
2019-05-07T02:43:14.265Z,21.37
2019-05-07T02:45:53.519Z,22.83
2019-05-07T02:48:27.987Z,21.97
2019-05-07T02:51:04.190Z,20.97
2019-05-07T02:53:43.561Z,21.07
2019-05-07T02:56:16.020Z,16.53
2019-05-07T02:58:48.497Z,11.43
2019-05-07T03:01:22.681Z,12.50
2019-05-07T03:03:55.487Z,14.20
2019-05-07T03:06:28.144Z,13.53
2019-05-07T03:09:03.200Z,19.53
2019-05-07T03:11:36.805Z,90.00
2019-05-07T03:14:10.076Z,24.17
2019-05-07T03:16:48.440Z,14.50
2019-05-07T03:19:17.771Z,14.03
2019-05-07T03:21:56.555Z,14.03
2019-05-07T03:24:46.027Z,18.73
2019-05-07T03:27:18.666Z,17.70
2019-05-07T03:29:53.617Z,14.40
2019-05-07T03:32:37.853Z,19.17
2019-05-07T03:35:16.188Z,24.07
2019-05-07T03:37:47.675Z,29.00
2019-05-07T03:40:22.870Z,41.17
2019-05-07T03:42:54.629Z,95.27
2019-05-07T03:45:29.003Z,63.60
2019-05-07T03:48:14.961Z,48.17
2019-05-07T03:50:47.718Z,39.27
2019-05-07T03:53:23.057Z,44.37
2019-05-07T03:55:55.259Z,43.77
2019-05-07T03:58:27.895Z,48.53
2019-05-07T04:01:03.944Z,43.40
2019-05-07T04:03:35.135Z,31.33
2019-05-07T04:06:07.808Z,20.90
2019-05-07T04:08:43.266Z,22.70
2019-05-07T04:11:15.015Z,49.37
2019-05-07T04:13:47.769Z,29.53
2019-05-07T04:16:20.401Z,37.90
2019-05-07T04:18:53.219Z,30.33
2019-05-07T04:21:25.886Z,21.07
2019-05-07T04:24:13.563Z,23.97
2019-05-07T04:26:56.745Z,11.53
2019-05-07T04:29:29.475Z,10.17
2019-05-07T04:32:03.269Z,7.30
2019-05-07T04:34:56.004Z,9.07
2019-05-07T04:37:28.882Z,7.83
2019-05-07T04:40:03.132Z,14.33
2019-05-07T04:42:35.675Z,12.03
2019-05-07T04:45:09.711Z,10.33
2019-05-07T04:47:46.678Z,12.40
2019-05-07T04:50:37.312Z,14.80
2019-05-07T04:52:54.073Z,10.30
2019-05-07T04:55:26.856Z,14.43
2019-05-07T04:58:02.741Z,9.30
2019-05-07T05:00:34.035Z,11.20
2019-05-07T05:03:23.401Z,13.43
2019-05-07T05:05:55.218Z,8.83
2019-05-07T05:08:27.770Z,12.00
2019-05-07T05:11:03.204Z,6.67
2019-05-07T05:13:35.125Z,11.10
2019-05-07T05:16:25.669Z,12.57
2019-05-07T05:18:59.036Z,9.80
2019-05-07T05:21:37.165Z,10.73
2019-05-07T05:24:12.655Z,13.30
2019-05-07T05:26:45.315Z,15.23
2019-05-07T05:29:19.103Z,14.60
2019-05-07T05:31:52.902Z,16.50
2019-05-07T05:34:25.571Z,14.60
2019-05-07T05:36:58.260Z,22.87
2019-05-07T05:39:32.052Z,20.57
2019-05-07T05:42:09.220Z,13.83
2019-05-07T05:44:41.969Z,12.63
2019-05-07T05:47:14.655Z,8.90
2019-05-07T05:49:48.375Z,10.93
2019-05-07T05:52:34.400Z,15.13
2019-05-07T05:55:09.022Z,17.40
2019-05-07T05:57:46.200Z,25.27
2019-05-07T06:00:22.195Z,19.80
2019-05-07T06:02:59.154Z,16.40
2019-05-07T06:05:41.517Z,14.33
2019-05-07T06:08:24.013Z,12.07
2019-05-07T06:10:58.515Z,15.57
2019-05-07T06:13:32.720Z,15.57
2019-05-07T06:16:09.796Z,11.33
2019-05-07T06:18:56.600Z,10.00
2019-05-07T06:21:49.221Z,34.30
2019-05-07T06:24:35.665Z,15.90
2019-05-07T06:27:08.410Z,22.00
2019-05-07T06:29:42.610Z,25.03
2019-05-07T06:32:17.050Z,28.97
2019-05-07T06:34:52.136Z,15.27
2019-05-07T06:37:24.191Z,13.63
2019-05-07T06:40:14.461Z,78.77
2019-05-07T06:42:52.334Z,55.17
2019-05-07T06:45:29.220Z,167.80
2019-05-07T06:48:02.983Z,25.57
2019-05-07T06:50:36.060Z,43.47
2019-05-07T06:53:09.036Z,48.30
2019-05-07T06:55:42.763Z,41.03
2019-05-07T06:58:16.761Z,10.57
2019-05-07T07:00:52.759Z,39.10
2019-05-07T07:03:27.317Z,30.73
2019-05-07T07:06:02.754Z,19.83
2019-05-07T07:08:52.659Z,24.77
2019-05-07T07:11:27.060Z,86.93
2019-05-07T07:13:59.761Z,27.57
2019-05-07T07:16:32.711Z,39.73
2019-05-07T07:19:06.501Z,9.83
2019-05-07T07:21:39.225Z,32.90
2019-05-07T07:24:12.734Z,39.60
2019-05-07T07:26:45.806Z,18.40
2019-05-07T07:29:21.506Z,13.60
2019-05-07T07:31:55.651Z,103.77
2019-05-07T07:34:29.356Z,100.77
2019-05-07T07:37:09.038Z,27.60
2019-05-07T07:39:37.794Z,18.10
2019-05-07T07:42:12.409Z,24.60
2019-05-07T07:44:44.771Z,12.17
2019-05-07T07:47:17.451Z,11.63
2019-05-07T07:49:49.836Z,31.57
2019-05-07T07:52:22.969Z,17.80
2019-05-07T07:54:55.833Z,26.97
2019-05-07T07:57:44.971Z,19.53
2019-05-07T08:00:19.871Z,8.73
2019-05-07T08:02:54.732Z,8.37
2019-05-07T08:05:27.312Z,18.47
2019-05-07T08:08:02.128Z,18.63
2019-05-07T08:10:33.990Z,26.63
2019-05-07T08:13:06.591Z,36.33
2019-05-07T08:15:40.291Z,18.40
2019-05-07T08:18:12.870Z,22.60
2019-05-07T08:20:45.531Z,16.10
2019-05-07T08:23:19.451Z,16.53
2019-05-07T08:25:52.678Z,14.60
2019-05-07T08:28:25.514Z,18.43
2019-05-07T08:30:59.530Z,17.40
2019-05-07T08:33:33.652Z,17.87
2019-05-07T08:36:14.783Z,43.33
2019-05-07T08:38:52.812Z,10.63
2019-05-07T08:41:27.654Z,15.53
2019-05-07T08:44:11.769Z,12.43
2019-05-07T08:46:57.990Z,12.97
2019-05-07T08:49:36.820Z,12.10
2019-05-07T08:52:04.612Z,6.43
2019-05-07T08:54:37.137Z,13.27
2019-05-07T08:57:11.727Z,8.43
2019-05-07T08:59:57.156Z,13.57
2019-05-07T09:02:17.869Z,16.40
2019-05-07T09:04:52.087Z,21.90
2019-05-07T09:07:24.550Z,15.80
2019-05-07T09:09:57.110Z,18.37
2019-05-07T09:12:31.691Z,14.13
2019-05-07T09:15:06.650Z,14.13
2019-05-07T09:17:39.051Z,11.50
2019-05-07T09:20:12.574Z,16.00
2019-05-07T09:22:45.090Z,30.43
2019-05-07T09:25:17.870Z,17.47
2019-05-07T09:27:52.408Z,27.07
2019-05-07T09:30:28.550Z,12.47
2019-05-07T09:33:02.738Z,21.77
2019-05-07T09:35:43.898Z,54.10
2019-05-07T09:38:16.232Z,19.73
2019-05-07T09:40:48.798Z,11.73
2019-05-07T09:43:22.005Z,18.70
2019-05-07T09:45:54.818Z,10.20
2019-05-07T09:48:27.561Z,8.03
2019-05-07T09:51:02.206Z,15.80
2019-05-07T09:53:33.971Z,17.43
2019-05-07T09:56:06.330Z,10.40
2019-05-07T09:58:39.257Z,11.77
2019-05-07T10:01:12.585Z,12.67
2019-05-07T10:03:45.029Z,6.47
2019-05-07T10:06:17.410Z,12.07
2019-05-07T10:08:49.929Z,7.97
2019-05-07T10:11:24.330Z,18.20
2019-05-07T10:13:58.580Z,6.90
2019-05-07T10:16:35.455Z,25.53
2019-05-07T10:19:07.917Z,30.23
2019-05-07T10:21:42.537Z,49.50
2019-05-07T10:24:15.135Z,24.40
2019-05-07T10:26:47.957Z,12.83
2019-05-07T10:29:22.613Z,13.07
2019-05-07T10:31:54.615Z,14.63
2019-05-07T10:34:27.014Z,12.97
2019-05-07T10:36:59.357Z,20.53
2019-05-07T10:39:32.580Z,9.37
2019-05-07T10:42:05.295Z,5.07
2019-05-07T10:44:39.475Z,16.07
2019-05-07T10:47:26.910Z,25.07
2019-05-07T10:50:16.895Z,9.50
2019-05-07T10:52:49.285Z,12.13
2019-05-07T10:55:22.255Z,5.37
2019-05-07T10:57:54.715Z,14.20
2019-05-07T11:00:27.855Z,11.70
2019-05-07T11:03:02.376Z,15.78
2019-05-07T11:05:34.675Z,8.83
2019-05-07T11:08:08.695Z,17.50
2019-05-07T11:10:41.879Z,9.40
2019-05-07T11:13:14.315Z,12.00
2019-05-07T11:15:48.176Z,10.20
2019-05-07T11:18:23.575Z,12.63
2019-05-07T11:20:55.864Z,6.08
2019-05-07T11:23:28.755Z,6.53
2019-05-07T11:26:02.523Z,9.30
2019-05-07T11:28:35.148Z,8.50
2019-05-07T11:31:07.695Z,13.88
2019-05-07T11:33:41.651Z,16.55
2019-05-07T11:36:14.201Z,8.23
2019-05-07T11:38:46.775Z,6.25
2019-05-07T11:41:22.813Z,4.15
2019-05-07T11:43:57.674Z,6.45
2019-05-07T11:46:29.875Z,9.98
2019-05-07T11:49:03.924Z,9.05
2019-05-07T11:51:38.015Z,8.13
2019-05-07T11:54:14.676Z,4.55
2019-05-07T11:56:47.135Z,4.28
2019-05-07T11:59:21.915Z,6.00
2019-05-07T12:01:55.455Z,6.50
2019-05-07T12:04:28.181Z,5.30
2019-05-07T12:07:02.549Z,3.90
2019-05-07T12:09:34.915Z,3.75
2019-05-07T12:12:07.635Z,5.33
2019-05-07T12:14:40.135Z,6.95
2019-05-07T12:17:12.515Z,2.73
2019-05-07T12:19:44.965Z,4.87
2019-05-07T12:22:18.910Z,10.17
2019-05-07T12:24:52.151Z,2.53
2019-05-07T12:27:26.215Z,6.97
2019-05-07T12:29:58.570Z,6.10
2019-05-07T12:32:38.694Z,10.53
2019-05-07T12:35:13.175Z,5.43
2019-05-07T12:37:47.864Z,8.33
2019-05-07T12:40:22.421Z,5.33
2019-05-07T12:42:55.030Z,4.70
2019-05-07T12:45:28.814Z,7.40
2019-05-07T12:48:02.355Z,7.47
2019-05-07T12:50:34.975Z,10.97
2019-05-07T12:53:12.226Z,6.70
2019-05-07T12:55:45.734Z,4.53
2019-05-07T12:58:18.299Z,5.07
2019-05-07T13:00:56.915Z,16.47
2019-05-07T13:03:32.349Z,7.20
2019-05-07T13:06:05.354Z,9.20
2019-05-07T13:08:37.676Z,8.10
2019-05-07T13:11:10.197Z,9.30
2019-05-07T13:13:42.494Z,10.35
2019-05-07T13:16:15.134Z,5.27
2019-05-07T13:18:47.714Z,2.73
2019-05-07T13:21:20.075Z,7.15
2019-05-07T13:23:52.474Z,13.23
2019-05-07T13:26:25.394Z,7.00
2019-05-07T13:28:57.904Z,10.35
2019-05-07T13:31:33.214Z,20.00
2019-05-07T13:34:06.054Z,5.50
2019-05-07T13:36:40.535Z,6.13
2019-05-07T13:39:14.583Z,4.70
2019-05-07T13:41:54.574Z,5.33
2019-05-07T13:44:29.517Z,9.47
2019-05-07T13:47:21.833Z,7.90
2019-05-07T13:49:54.595Z,6.17
2019-05-07T13:52:27.276Z,7.63
2019-05-07T13:54:59.834Z,6.43
2019-05-07T13:57:32.874Z,3.57
2019-05-07T14:00:08.353Z,5.20
2019-05-07T14:02:42.183Z,9.20
2019-05-07T14:05:15.137Z,6.33
2019-05-07T14:07:48.455Z,7.80
2019-05-07T14:10:21.738Z,7.50
2019-05-07T14:13:07.639Z,4.97
2019-05-07T14:15:29.615Z,3.87
2019-05-07T14:18:02.252Z,6.03
2019-05-07T14:20:34.715Z,4.93
2019-05-07T14:23:07.196Z,9.63
2019-05-07T14:25:41.845Z,5.67
2019-05-07T14:28:13.616Z,6.17
2019-05-07T14:30:46.175Z,3.10
2019-05-07T14:33:23.275Z,7.27
2019-05-07T14:35:57.235Z,4.43
2019-05-07T14:38:32.096Z,6.20
2019-05-07T14:41:04.694Z,4.67
2019-05-07T14:43:38.915Z,3.93
2019-05-07T14:46:11.990Z,5.70
2019-05-07T14:48:44.595Z,6.83
2019-05-07T14:51:17.134Z,5.00
2019-05-07T14:53:49.756Z,4.57
2019-05-07T14:56:23.775Z,6.17
2019-05-07T14:58:56.916Z,5.20
2019-05-07T15:01:30.496Z,2.60
2019-05-07T15:04:02.857Z,4.47
2019-05-07T15:06:35.715Z,8.17
2019-05-07T15:09:08.434Z,11.10
2019-05-07T15:11:42.480Z,7.27
2019-05-07T15:14:15.516Z,10.50
2019-05-07T15:16:48.876Z,17.47
2019-05-07T15:19:21.723Z,9.13
2019-05-07T15:21:56.075Z,4.87
2019-05-07T15:24:28.622Z,9.90
2019-05-07T15:27:01.175Z,11.63
2019-05-07T15:29:33.795Z,5.47
2019-05-07T15:32:08.011Z,4.53
2019-05-07T15:34:42.149Z,7.67
2019-05-07T15:37:14.855Z,5.63
2019-05-07T15:39:47.475Z,3.27
2019-05-07T15:42:22.103Z,4.47
2019-05-07T15:44:54.515Z,7.70
2019-05-07T15:47:31.783Z,13.43
2019-05-07T15:50:05.275Z,6.87
2019-05-07T15:52:58.425Z,17.07
2019-05-07T15:55:25.795Z,11.53
2019-05-07T15:57:58.535Z,7.27
2019-05-07T16:00:33.450Z,17.53
2019-05-07T16:03:07.935Z,11.30
2019-05-07T16:05:42.491Z,17.50
2019-05-07T16:08:16.116Z,31.00
2019-05-07T16:10:48.675Z,10.80
2019-05-07T16:13:22.616Z,15.80
2019-05-07T16:15:55.257Z,11.87
2019-05-07T16:18:29.555Z,25.33
2019-05-07T16:21:04.905Z,16.13
2019-05-07T16:23:36.426Z,32.03
2019-05-07T16:26:08.735Z,21.23
2019-05-07T16:28:41.733Z,8.13
2019-05-07T16:31:14.215Z,25.27
2019-05-07T16:33:46.735Z,17.50
2019-05-07T16:36:19.355Z,57.70
2019-05-07T16:38:52.678Z,19.70
2019-05-07T16:41:25.375Z,12.43
2019-05-07T16:43:57.722Z,147.00
2019-05-07T16:46:30.200Z,67.03
2019-05-07T16:49:02.809Z,97.93
2019-05-07T16:51:35.395Z,33.73
2019-05-07T16:54:07.995Z,26.20
2019-05-07T16:56:42.784Z,31.97
2019-05-07T16:59:15.675Z,58.10
2019-05-07T17:01:48.175Z,78.77
2019-05-07T17:04:22.682Z,372.20
2019-05-07T17:06:55.243Z,255.17
2019-05-07T17:09:28.875Z,172.03
2019-05-07T17:12:02.835Z,167.73
2019-05-07T17:14:35.375Z,82.90
2019-05-07T17:17:07.895Z,119.70
2019-05-07T17:19:42.404Z,280.97
2019-05-07T17:22:14.755Z,293.77
2019-05-07T17:24:47.415Z,162.23
2019-05-07T17:27:19.975Z,386.97
2019-05-07T17:29:52.496Z,563.70
2019-05-07T17:32:25.130Z,410.10
2019-05-07T17:34:57.576Z,338.87
2019-05-07T17:37:30.175Z,626.00
2019-05-07T17:40:03.162Z,236.10
2019-05-07T17:42:37.035Z,244.33
2019-05-07T17:45:12.199Z,92.50
2019-05-07T17:47:44.095Z,594.27
2019-05-07T17:50:22.801Z,296.03
2019-05-07T17:52:55.415Z,362.93
2019-05-07T17:55:28.235Z,398.67
2019-05-07T17:58:02.003Z,236.47
2019-05-07T18:00:34.722Z,149.33
2019-05-07T18:03:10.325Z,120.93
2019-05-07T18:05:42.976Z,161.10
2019-05-07T18:08:16.455Z,140.00
2019-05-07T18:10:49.196Z,154.90
2019-05-07T18:13:22.336Z,119.57
2019-05-07T18:15:56.635Z,127.43
2019-05-07T18:18:29.235Z,151.13
2019-05-07T18:21:02.432Z,122.23
2019-05-07T18:23:37.235Z,130.87
2019-05-07T18:26:09.965Z,93.87
2019-05-07T18:28:42.628Z,95.17
2019-05-07T18:31:15.983Z,74.30
2019-05-07T18:33:53.110Z,101.70
2019-05-07T18:36:25.825Z,156.60
2019-05-07T18:38:59.080Z,96.30
2019-05-07T18:41:32.693Z,71.63
2019-05-07T18:44:12.330Z,55.77
2019-05-07T18:46:39.990Z,65.10
2019-05-07T18:49:12.938Z,71.30
2019-05-07T18:51:45.980Z,46.77
2019-05-07T18:54:27.963Z,42.37
2019-05-07T18:56:53.195Z,45.43
2019-05-07T18:59:27.530Z,56.27
2019-05-07T19:02:02.245Z,39.57
2019-05-07T19:04:34.975Z,69.87
2019-05-07T19:07:07.694Z,49.30
2019-05-07T19:09:42.297Z,46.37
2019-05-07T19:12:16.121Z,55.30
2019-05-07T19:14:48.996Z,60.23
2019-05-07T19:17:22.866Z,146.87
2019-05-07T19:19:56.645Z,221.03
2019-05-07T19:22:29.655Z,225.97
2019-05-07T19:25:03.097Z,162.57
2019-05-07T19:27:37.094Z,113.87
2019-05-07T19:30:12.531Z,117.27
2019-05-07T19:32:45.685Z,149.97
2019-05-07T19:35:18.415Z,178.20
2019-05-07T19:37:52.861Z,158.17
2019-05-07T19:40:25.767Z,140.57
2019-05-07T19:42:58.590Z,151.50
2019-05-07T19:45:31.338Z,192.73
2019-05-07T19:48:04.212Z,366.03
2019-05-07T19:50:36.805Z,345.57
2019-05-07T19:53:09.555Z,416.87
2019-05-07T19:56:01.875Z,372.67
2019-05-07T19:58:34.565Z,420.13
2019-05-07T20:01:11.969Z,470.97
2019-05-07T20:03:43.905Z,679.40
2019-05-07T20:06:16.820Z,599.87
2019-05-07T20:08:49.425Z,473.93
2019-05-07T20:11:24.840Z,519.60
2019-05-07T20:13:57.936Z,607.90
2019-05-07T20:16:32.580Z,509.83
2019-05-07T20:19:05.549Z,270.30
2019-05-07T20:21:38.366Z,173.03
2019-05-07T20:24:12.499Z,178.80
2019-05-07T20:26:45.510Z,176.47
2019-05-07T20:29:18.246Z,182.10
2019-05-07T20:31:53.158Z,168.23
2019-05-07T20:34:25.580Z,171.93
2019-05-07T20:36:58.174Z,201.30
2019-05-07T20:39:32.285Z,236.53
2019-05-07T20:42:05.848Z,283.40
2019-05-07T20:44:38.630Z,286.83
2019-05-07T20:47:12.682Z,275.10
2019-05-07T20:49:45.730Z,376.40
2019-05-07T20:52:18.375Z,317.67
2019-05-07T20:54:52.805Z,258.90
2019-05-07T20:57:27.245Z,255.57
2019-05-07T20:59:59.896Z,302.87
2019-05-07T21:02:44.411Z,267.77
2019-05-07T21:05:08.850Z,200.03
2019-05-07T21:07:42.412Z,161.93
2019-05-07T21:10:15.657Z,147.97
2019-05-07T21:12:48.205Z,131.10
2019-05-07T21:15:22.819Z,119.47
2019-05-07T21:17:55.572Z,99.97
2019-05-07T21:20:28.346Z,112.23
2019-05-07T21:23:02.657Z,83.30
2019-05-07T21:25:42.679Z,67.10
2019-05-07T21:28:12.015Z,79.43
2019-05-07T21:30:44.475Z,101.67
2019-05-07T21:33:17.378Z,108.97
2019-05-07T21:35:52.327Z,118.13
2019-05-07T21:38:24.705Z,112.77
2019-05-07T21:40:57.398Z,127.40
2019-05-07T21:43:32.528Z,134.17
2019-05-07T21:46:04.900Z,125.03
2019-05-07T21:48:37.730Z,123.40
2019-05-07T21:51:12.171Z,129.63
2019-05-07T21:53:49.345Z,155.87
2019-05-07T21:56:29.755Z,195.83
2019-05-07T21:59:04.225Z,159.33
2019-05-07T22:01:38.520Z,168.43
2019-05-07T22:04:12.661Z,162.93
2019-05-07T22:06:45.736Z,158.00
2019-05-07T22:09:18.880Z,172.67
2019-05-07T22:11:53.508Z,171.10
2019-05-07T22:14:26.280Z,150.40
2019-05-07T22:16:59.505Z,134.90
2019-05-07T22:19:33.860Z,111.50
2019-05-07T22:22:06.829Z,106.70
2019-05-07T22:24:39.500Z,76.97
2019-05-07T22:27:12.850Z,62.43
2019-05-07T22:29:46.024Z,53.07
2019-05-07T22:32:26.155Z,36.67
2019-05-07T22:35:15.511Z,35.97
2019-05-07T22:37:51.959Z,90.33
2019-05-07T22:40:25.794Z,138.37
2019-05-07T22:43:02.076Z,139.03
2019-05-07T22:45:34.276Z,154.47
2019-05-07T22:48:06.859Z,125.60
2019-05-07T22:50:39.634Z,129.20
2019-05-07T22:53:12.644Z,132.77
2019-05-07T22:55:45.215Z,148.23
2019-05-07T22:58:32.552Z,223.57
2019-05-07T23:01:09.595Z,207.30
2019-05-07T23:03:43.082Z,184.80
2019-05-07T23:06:15.785Z,209.40
2019-05-07T23:08:48.605Z,193.30
2019-05-07T23:11:22.837Z,181.43
2019-05-07T23:13:55.810Z,176.33
2019-05-07T23:16:28.504Z,142.10
2019-05-07T23:19:01.265Z,138.13
2019-05-07T23:21:34.041Z,141.07
2019-05-07T23:24:06.985Z,122.73
2019-05-07T23:26:48.186Z,129.73
2019-05-07T23:29:13.765Z,137.67
2019-05-07T23:31:46.374Z,122.47
2019-05-07T23:34:18.944Z,101.27
2019-05-07T23:36:53.401Z,109.73
2019-05-07T23:39:28.809Z,111.50
2019-05-07T23:42:05.781Z,110.70
2019-05-07T23:44:38.770Z,104.47
2019-05-07T23:47:12.241Z,121.23
2019-05-07T23:49:45.085Z,111.10
2019-05-07T23:52:17.598Z,111.67
2019-05-07T23:54:52.011Z,109.40
2019-05-07T23:57:24.861Z,103.73
2019-05-07T23:59:57.755Z,98.20
